Time;durP1;ratioP1;P1;durP2;ratioP2;P2;SDS_P1;SDS_P2;PMS_P1;PMS_P2;Temp;Humidity;BMP_temperature;BMP_pressure;BME280_temperature;BME280_humidity;BME280_pressure;Samples;Min_cycle;Max_cycle;Signal;HPM_P1;HPM_P2
2023/01/01 00:01:39;;;;;;;12.85;3.83;;;;;;;17.44;44.98;100599.72;3564742;40;20061;-64
2023/01/01 00:04:09;;;;;;;13.82;3.97;;;;;;;17.44;45.53;100595.16;3563428;40;20127;-63
2023/01/01 00:06:35;;;;;;;11.05;3.30;;;;;;;17.40;44.70;100600.03;3565910;40;20053;-63
2023/01/01 00:11:46;;;;;;;12.55;3.50;;;;;;;17.47;45.24;100605.72;3566083;40;20051;-63
2023/01/01 00:14:12;;;;;;;11.23;3.50;;;;;;;16.96;44.33;100527.28;3564287;40;20384;-64
2023/01/01 00:16:38;;;;;;;9.00;3.45;;;;;;;17.44;44.61;100616.03;3561371;40;20056;-64
2023/01/01 00:19:03;;;;;;;10.73;3.70;;;;;;;17.46;44.17;100624.91;3566057;40;20437;-64
2023/01/01 00:21:29;;;;;;;11.68;3.78;;;;;;;17.42;44.18;100601.75;3564875;40;20053;-66
2023/01/01 00:23:54;;;;;;;10.52;3.42;;;;;;;17.37;44.65;100622.03;3566822;40;20064;-65
2023/01/01 00:26:20;;;;;;;6.45;2.97;;;;;;;17.39;43.63;100652.66;3564724;40;20295;-65
2023/01/01 00:28:46;;;;;;;8.68;2.80;;;;;;;17.37;43.43;100637.50;3563302;40;20049;-65
2023/01/01 00:31:19;;;;;;;7.82;3.33;;;;;;;17.40;43.60;100624.47;3563697;40;20049;-65
2023/01/01 00:33:51;;;;;;;5.78;2.85;;;;;;;17.35;44.50;100596.91;3566910;40;20051;-66
2023/01/01 00:36:19;;;;;;;10.38;3.50;;;;;;;17.33;44.83;100617.91;3569364;40;20064;-64
2023/01/01 00:38:45;;;;;;;6.60;3.00;;;;;;;17.32;45.00;100609.91;3567347;40;20052;-64
2023/01/01 00:41:13;;;;;;;6.70;3.03;;;;;;;17.27;45.48;100606.75;3565476;40;20426;-64
2023/01/01 00:43:40;;;;;;;10.23;3.38;;;;;;;17.22;46.99;100599.06;3562681;40;20068;-64
2023/01/01 00:46:08;;;;;;;10.60;3.10;;;;;;;17.14;45.24;100615.19;3562789;40;20093;-65
2023/01/01 00:48:34;;;;;;;8.73;3.20;;;;;;;17.19;45.25;100612.94;3563332;40;20065;-64
2023/01/01 00:51:01;;;;;;;10.52;2.60;;;;;;;17.17;45.00;100610.34;3568624;40;20052;-65
2023/01/01 00:53:26;;;;;;;8.30;2.90;;;;;;;17.17;45.15;100612.19;3567290;40;20052;-64
2023/01/01 00:55:55;;;;;;;13.48;3.08;;;;;;;17.16;45.28;100614.06;3564422;40;20093;-63
2023/01/01 00:58:22;;;;;;;14.40;2.58;;;;;;;17.11;45.15;100600.03;3564946;40;20160;-65
2023/01/01 01:00:51;;;;;;;7.85;2.30;;;;;;;17.15;44.50;100600.59;3565702;40;20048;-64
2023/01/01 01:03:29;;;;;;;7.75;2.35;;;;;;;17.16;44.57;100632.22;3564403;40;20061;-64
2023/01/01 01:06:01;;;;;;;8.00;2.47;;;;;;;17.18;44.16;100627.47;3565762;40;20375;-64
2023/01/01 01:08:30;;;;;;;9.40;2.55;;;;;;;17.21;44.90;100648.09;3564953;40;20057;-65
2023/01/01 01:11:07;;;;;;;9.27;3.00;;;;;;;17.20;44.81;100641.78;3564757;40;20064;-64
2023/01/01 01:13:34;;;;;;;7.47;2.40;;;;;;;16.51;45.13;100515.09;3565992;40;20089;-64
2023/01/01 01:16:01;;;;;;;7.72;2.22;;;;;;;16.69;45.17;100542.41;3566822;40;20045;-64
2023/01/01 01:18:26;;;;;;;7.63;2.33;;;;;;;17.09;45.64;100612.03;3563489;40;20041;-65
2023/01/01 01:20:53;;;;;;;7.20;2.38;;;;;;;17.13;45.52;100618.94;3563566;40;20068;-65
2023/01/01 01:23:20;;;;;;;7.57;2.22;;;;;;;17.10;45.10;100613.78;3564637;40;20415;-64
2023/01/01 01:25:46;;;;;;;5.55;2.47;;;;;;;17.16;45.68;100624.06;3567454;40;20083;-65
2023/01/01 01:28:12;;;;;;;6.75;2.28;;;;;;;17.11;45.56;100646.22;3565660;40;20055;-64
2023/01/01 01:30:40;;;;;;;8.05;3.03;;;;;;;17.04;44.84;100636.06;3562215;40;20428;-64
2023/01/01 01:33:06;;;;;;;9.25;2.38;;;;;;;17.00;44.90;100649.06;3563751;40;20175;-64
2023/01/01 01:35:32;;;;;;;6.60;2.50;;;;;;;16.96;44.90;100649.47;3567601;40;20049;-65
2023/01/01 01:37:58;;;;;;;7.05;2.58;;;;;;;16.94;45.33;100655.06;3563414;40;20620;-64
2023/01/01 01:40:24;;;;;;;7.25;2.70;;;;;;;16.90;45.73;100659.03;3563044;40;20052;-63
2023/01/01 01:42:51;;;;;;;4.82;2.05;;;;;;;16.85;45.30;100645.03;3565945;40;20108;-64
2023/01/01 01:45:18;;;;;;;7.38;2.45;;;;;;;16.82;45.06;100631.75;3565264;40;20388;-64
2023/01/01 01:47:58;;;;;;;6.40;2.72;;;;;;;16.63;45.83;100621.66;3571692;40;20048;-64
2023/01/01 01:50:43;;;;;;;7.93;3.03;;;;;;;16.70;46.24;100649.97;3567273;40;20060;-63
2023/01/01 01:53:31;;;;;;;5.22;2.20;;;;;;;16.69;45.55;100656.41;3568083;40;20057;-64
2023/01/01 01:56:03;;;;;;;8.68;2.25;;;;;;;16.53;45.54;100637.06;3564808;40;20061;-64
2023/01/01 01:58:32;;;;;;;8.15;2.25;;;;;;;16.62;45.72;100666.97;3564035;40;20393;-64
2023/01/01 02:00:59;;;;;;;4.57;1.98;;;;;;;16.59;46.44;100669.09;3565544;40;20432;-64
2023/01/01 02:03:42;;;;;;;6.13;2.35;;;;;;;16.56;45.94;100669.38;3566379;40;20049;-64
2023/01/01 02:06:10;;;;;;;5.07;2.00;;;;;;;16.43;46.62;100646.03;3566246;40;20061;-64
2023/01/01 02:08:36;;;;;;;5.40;2.05;;;;;;;15.97;46.19;100589.59;3567926;40;20061;-64
2023/01/01 02:11:02;;;;;;;7.97;2.70;;;;;;;16.53;46.49;100677.78;3564203;40;20057;-64
2023/01/01 02:13:28;;;;;;;7.22;2.17;;;;;;;16.50;45.87;100686.19;3566223;40;20053;-64
2023/01/01 02:16:07;;;;;;;5.55;1.70;;;;;;;16.49;45.64;100677.16;3564940;40;20075;-63
2023/01/01 02:18:50;;;;;;;4.88;2.10;;;;;;;16.44;46.00;100677.59;3566507;40;20057;-64
2023/01/01 02:21:36;;;;;;;10.43;2.35;;;;;;;16.39;46.31;100668.97;3564162;40;20052;-64
2023/01/01 02:24:29;;;;;;;12.60;2.38;;;;;;;16.42;45.95;100682.28;3563411;40;20127;-64
2023/01/01 02:27:17;;;;;;;4.95;2.08;;;;;;;16.41;45.99;100677.00;3563564;40;20080;-63
2023/01/01 02:29:59;;;;;;;7.32;2.30;;;;;;;15.67;46.45;100566.91;3567343;40;20082;-64
2023/01/01 02:32:48;;;;;;;7.53;2.13;;;;;;;16.39;46.51;100679.84;3565522;40;20057;-64
2023/01/01 02:35:41;;;;;;;9.68;2.22;;;;;;;15.50;46.32;100534.97;3565541;40;20057;-64
2023/01/01 02:38:26;;;;;;;9.80;3.00;;;;;;;16.35;46.54;100683.81;3563708;40;20045;-64
2023/01/01 02:41:00;;;;;;;5.93;1.80;;;;;;;16.36;46.68;100684.69;3562802;40;20071;-64
2023/01/01 02:43:25;;;;;;;6.43;2.15;;;;;;;16.38;46.80;100683.56;3563426;40;20049;-64
2023/01/01 02:45:54;;;;;;;4.65;1.90;;;;;;;16.33;46.87;100680.38;3562818;40;20084;-63
2023/01/01 02:48:47;;;;;;;7.50;2.30;;;;;;;16.31;46.84;100665.25;3563037;40;20065;-64
2023/01/01 02:51:22;;;;;;;6.93;1.77;;;;;;;16.30;47.30;100680.69;3566252;40;20052;-64
2023/01/01 02:54:09;;;;;;;8.07;1.90;;;;;;;16.30;47.74;100686.09;3565748;40;20273;-64
2023/01/01 02:56:58;;;;;;;8.07;2.20;;;;;;;16.29;46.73;100697.06;3567786;40;20057;-63
2023/01/01 03:02:35;;;;;;;8.32;1.92;;;;;;;16.26;47.25;100692.78;3565814;40;20056;-64
2023/01/01 03:05:19;;;;;;;9.02;2.22;;;;;;;16.26;47.54;100692.78;3563993;40;20060;-64
2023/01/01 03:07:58;;;;;;;8.00;1.90;;;;;;;16.25;47.60;100693.78;3562480;40;20059;-64
2023/01/01 03:10:59;;;;;;;8.05;1.75;;;;;;;16.25;47.46;100705.47;3565229;40;20061;-63
2023/01/01 03:13:58;;;;;;;6.38;1.80;;;;;;;16.23;48.23;100696.59;3562659;40;20368;-67
2023/01/01 03:16:34;;;;;;;4.13;1.63;;;;;;;14.81;48.00;100462.38;3562208;40;20388;-64
2023/01/01 03:19:10;;;;;;;7.15;1.83;;;;;;;16.19;48.27;100702.44;3562816;40;20049;-64
2023/01/01 03:21:56;;;;;;;4.25;1.80;;;;;;;16.18;48.61;100707.03;3562245;40;20060;-64
2023/01/01 03:24:41;;;;;;;5.38;1.90;;;;;;;16.12;48.80;100709.41;3563283;40;20065;-63
2023/01/01 03:27:29;;;;;;;12.15;2.17;;;;;;;16.14;48.80;100711.00;3566818;40;20056;-64
2023/01/01 03:30:01;;;;;;;6.57;1.80;;;;;;;16.19;48.27;100716.00;3563353;40;20089;-63
2023/01/01 03:33:00;;;;;;;3.33;1.88;;;;;;;16.16;49.29;100713.56;3565120;40;20118;-63
2023/01/01 03:35:39;;;;;;;6.63;1.60;;;;;;;16.16;49.10;100691.88;3565555;40;20163;-64
2023/01/01 03:38:20;;;;;;;6.68;1.92;;;;;;;16.15;48.70;100722.72;3562719;40;20060;-64
2023/01/01 03:40:53;;;;;;;5.93;1.63;;;;;;;16.14;48.96;100715.53;3562487;40;20054;-64
2023/01/01 03:43:40;;;;;;;4.20;1.63;;;;;;;16.12;48.89;100706.69;3567801;40;20307;-64
2023/01/01 03:46:11;;;;;;;7.40;1.80;;;;;;;16.13;48.97;100730.97;3562052;40;20268;-64
2023/01/01 03:48:55;;;;;;;7.88;1.85;;;;;;;16.15;48.96;100730.84;3562811;40;20049;-64
2023/01/01 03:51:49;;;;;;;;;;;;;;;16.08;49.49;100746.78;3563000;40;20061;-64
2023/01/01 03:54:43;;;;;;;4.22;1.50;;;;;;;16.07;48.97;100736.06;3565989;40;20377;-63
2023/01/01 03:57:53;;;;;;;6.72;1.65;;;;;;;16.09;49.54;100732.22;3564341;40;20049;-64
2023/01/01 04:00:27;;;;;;;5.65;1.95;;;;;;;16.10;49.21;100722.22;3568445;40;20061;-64
2023/01/01 04:02:59;;;;;;;7.38;2.03;;;;;;;16.07;49.87;100739.63;3565568;40;20203;-63
2023/01/01 04:05:27;;;;;;;6.38;1.77;;;;;;;16.07;49.70;100752.31;3566800;40;20088;-63
2023/01/01 04:07:55;;;;;;;6.30;1.92;;;;;;;15.97;50.18;100728.72;3565182;40;20065;-64
2023/01/01 04:10:24;;;;;;;5.18;1.85;;;;;;;16.01;50.51;100757.28;3565497;40;20053;-63
2023/01/01 04:12:55;;;;;;;5.70;2.20;;;;;;;16.01;50.55;100751.00;3560725;40;20501;-64
2023/01/01 04:15:25;;;;;;;7.15;2.13;;;;;;;16.01;50.37;100751.84;3566801;40;20056;-63
2023/01/01 04:17:52;;;;;;;8.10;2.25;;;;;;;15.93;51.30;100750.81;3568529;40;20128;-64
2023/01/01 04:20:20;;;;;;;5.60;2.00;;;;;;;15.95;51.05;100755.13;3564390;40;20076;-64
2023/01/01 04:22:46;;;;;;;5.80;1.88;;;;;;;14.61;50.84;100538.00;3564811;40;20056;-64
2023/01/01 04:25:13;;;;;;;9.32;1.95;;;;;;;15.89;51.49;100750.22;3564621;40;20400;-64
2023/01/01 04:27:40;;;;;;;5.43;1.92;;;;;;;15.90;51.34;100749.22;3565024;40;20407;-64
2023/01/01 04:30:10;;;;;;;8.55;2.00;;;;;;;15.90;51.25;100732.09;3565977;40;20063;-63
2023/01/01 04:32:36;;;;;;;4.00;1.40;;;;;;;15.88;51.16;100737.63;3563908;40;20407;-63
2023/01/01 04:35:02;;;;;;;7.80;2.08;;;;;;;15.48;51.36;100673.25;3565704;40;20058;-64
2023/01/01 04:37:27;;;;;;;4.90;1.80;;;;;;;15.86;51.80;100757.72;3565022;40;20116;-63
2023/01/01 04:39:53;;;;;;;7.22;2.20;;;;;;;15.07;51.65;100631.59;3564619;40;20081;-63
2023/01/01 04:42:19;;;;;;;5.13;1.63;;;;;;;15.82;51.62;100778.81;3565671;40;20049;-64
2023/01/01 04:44:44;;;;;;;10.77;1.92;;;;;;;15.80;51.74;100780.81;3565419;40;20057;-63
2023/01/01 04:47:10;;;;;;;5.82;2.35;;;;;;;15.76;52.59;100780.22;3563963;40;20057;-64
2023/01/01 04:49:36;;;;;;;5.55;2.10;;;;;;;15.04;52.47;100647.22;3564325;40;20064;-63
2023/01/01 04:52:02;;;;;;;6.07;1.90;;;;;;;15.75;52.79;100783.03;3569683;40;20049;-64
2023/01/01 04:54:28;;;;;;;3.85;2.05;;;;;;;15.77;53.02;100775.66;3567152;40;20045;-63
2023/01/01 04:56:54;;;;;;;5.93;1.90;;;;;;;15.69;53.17;100772.72;3566807;40;20285;-64
2023/01/01 04:59:19;;;;;;;4.70;1.65;;;;;;;15.69;53.19;100776.28;3564198;40;20116;-63
2023/01/01 05:01:45;;;;;;;7.22;2.05;;;;;;;15.71;53.11;100773.47;3566454;40;20060;-64
2023/01/01 05:04:16;;;;;;;6.00;2.30;;;;;;;14.97;53.14;100668.53;3569866;40;20107;-63
2023/01/01 05:06:42;;;;;;;6.72;2.03;;;;;;;15.70;53.54;100802.41;3566539;40;20060;-63
2023/01/01 05:09:10;;;;;;;5.78;1.83;;;;;;;15.69;53.28;100811.50;3568535;40;20153;-64
2023/01/01 05:11:36;;;;;;;7.07;2.10;;;;;;;15.64;52.97;100818.28;3565421;40;20063;-63
2023/01/01 05:14:03;;;;;;;4.97;1.95;;;;;;;14.79;53.63;100657.38;3563472;40;20049;-63
2023/01/01 05:16:34;;;;;;;5.65;2.05;;;;;;;15.71;53.69;100808.69;3563975;40;20056;-64
2023/01/01 05:19:00;;;;;;;4.13;1.77;;;;;;;15.68;54.13;100809.81;3564629;40;20057;-63
2023/01/01 05:21:33;;;;;;;4.75;1.73;;;;;;;15.64;53.96;100823.72;3563449;40;20096;-63
2023/01/01 05:24:05;;;;;;;4.18;1.98;;;;;;;15.66;54.22;100832.56;3568912;40;20304;-63
2023/01/01 05:26:36;;;;;;;5.55;2.20;;;;;;;15.62;53.88;100848.22;3563761;40;20397;-64
2023/01/01 05:29:03;;;;;;;6.47;2.10;;;;;;;15.64;54.19;100856.22;3563375;40;20134;-63
2023/01/01 05:31:34;;;;;;;6.32;1.73;;;;;;;14.92;54.37;100740.25;3564077;40;20061;-64
2023/01/01 05:34:02;;;;;;;4.53;1.77;;;;;;;15.63;54.56;100862.63;3568557;40;20057;-63
2023/01/01 05:36:32;;;;;;;9.27;2.28;;;;;;;15.62;54.29;100866.31;3565464;40;20123;-64
2023/01/01 05:38:59;;;;;;;7.55;2.10;;;;;;;15.60;54.65;100871.00;3568563;40;20064;-64
2023/01/01 05:41:25;;;;;;;6.53;2.40;;;;;;;15.56;54.82;100871.25;3565350;40;20045;-64
2023/01/01 05:43:52;;;;;;;5.53;2.22;;;;;;;15.59;54.84;100863.88;3564568;40;20407;-63
2023/01/01 05:46:24;;;;;;;5.97;1.77;;;;;;;15.55;55.06;100864.13;3563344;40;20060;-63
2023/01/01 05:48:52;;;;;;;8.40;2.30;;;;;;;15.51;55.04;100878.91;3564587;40;20082;-64
2023/01/01 05:51:22;;;;;;;6.43;2.08;;;;;;;15.48;55.15;100883.72;3563375;40;20052;-63
2023/01/01 05:53:48;;;;;;;6.38;2.10;;;;;;;14.71;55.40;100767.22;3564981;40;20074;-63
2023/01/01 05:56:15;;;;;;;7.32;1.88;;;;;;;15.40;55.33;100875.34;3562965;40;20055;-63
2023/01/01 05:58:42;;;;;;;6.82;2.40;;;;;;;15.44;56.01;100891.22;3568151;40;20068;-63
2023/01/01 06:01:18;;;;;;;4.35;1.77;;;;;;;15.43;55.61;100897.63;3563029;40;20060;-63
2023/01/01 06:03:44;;;;;;;7.68;1.90;;;;;;;15.39;56.26;100916.97;3563253;40;20097;-63
2023/01/01 06:06:24;;;;;;;11.15;2.63;;;;;;;15.40;55.57;100907.84;3565674;40;20060;-63
2023/01/01 06:09:02;;;;;;;10.18;2.33;;;;;;;15.36;55.97;100896.41;3563307;40;20064;-64
2023/01/01 06:11:29;;;;;;;4.57;1.73;;;;;;;15.35;55.93;100910.06;3564769;40;20053;-63
2023/01/01 06:13:59;;;;;;;9.02;2.58;;;;;;;15.34;56.46;100914.63;3563588;40;20053;-63
2023/01/01 06:16:28;;;;;;;6.95;2.05;;;;;;;15.32;56.36;100922.88;3564960;40;20053;-64
2023/01/01 06:18:55;;;;;;;4.55;1.88;;;;;;;15.31;55.88;100933.81;3560538;40;20289;-64
2023/01/01 06:21:27;;;;;;;7.60;2.10;;;;;;;15.30;56.04;100918.56;3565241;40;20266;-63
2023/01/01 06:23:57;;;;;;;3.80;2.10;;;;;;;14.99;56.46;100872.28;3565923;40;20151;-63
2023/01/01 06:26:27;;;;;;;5.72;1.80;;;;;;;14.60;56.44;100828.44;3563917;40;20319;-64
2023/01/01 06:28:52;;;;;;;5.53;2.00;;;;;;;15.26;57.57;100955.88;3563581;40;20049;-63
2023/01/01 06:31:21;;;;;;;6.65;2.17;;;;;;;15.11;58.44;100946.25;3563379;40;20060;-64
2023/01/01 06:33:49;;;;;;;7.47;2.25;;;;;;;15.14;59.84;100991.19;3567189;40;20064;-64
2023/01/01 06:36:18;;;;;;;6.22;2.05;;;;;;;14.98;62.03;100995.09;3564440;40;20052;-64
2023/01/01 06:38:49;;;;;;;8.43;2.45;;;;;;;14.80;64.04;101001.91;3564131;40;20116;-64
2023/01/01 06:41:22;;;;;;;9.18;2.63;;;;;;;13.91;65.57;100898.59;3564966;40;20085;-64
2023/01/01 06:43:49;;;;;;;7.05;2.75;;;;;;;14.44;67.17;101010.97;3564973;40;20900;-64
2023/01/01 06:46:23;;;;;;;7.10;2.85;;;;;;;14.20;68.19;101008.22;3562324;40;20049;-65
2023/01/01 06:48:56;;;;;;;6.57;2.53;;;;;;;14.02;69.88;101011.34;3567230;40;20060;-64
2023/01/01 06:51:29;;;;;;;7.80;2.75;;;;;;;13.66;71.20;101012.16;3560811;40;20053;-66
2023/01/01 06:53:59;;;;;;;9.70;3.28;;;;;;;13.48;72.92;101022.44;3565242;40;20041;-63
2023/01/01 06:56:26;;;;;;;7.57;3.05;;;;;;;12.52;73.92;100897.78;3565939;40;20057;-63
2023/01/01 06:58:51;;;;;;;6.07;2.85;;;;;;;13.20;75.56;101045.94;3562798;40;20069;-61
2023/01/01 07:01:21;;;;;;;10.07;3.05;;;;;;;13.08;76.64;101035.13;3563900;40;20092;-65
2023/01/01 07:03:54;;;;;;;5.28;2.70;;;;;;;11.82;77.26;100842.28;3564509;40;20079;-64
2023/01/01 07:06:20;;;;;;;10.73;2.67;;;;;;;12.92;78.28;101038.03;3567382;40;20287;-65
2023/01/01 07:08:46;;;;;;;8.48;2.60;;;;;;;12.86;79.08;101054.63;3565841;40;20064;-65
2023/01/01 07:11:12;;;;;;;7.05;2.72;;;;;;;12.77;79.53;101039.91;3562851;40;20068;-65
2023/01/01 07:13:37;;;;;;;8.40;3.50;;;;;;;12.70;80.35;101055.66;3563938;40;20057;-64
2023/01/01 07:16:05;;;;;;;9.68;2.80;;;;;;;12.69;80.91;101070.13;3562674;40;20092;-64
2023/01/01 07:18:31;;;;;;;6.68;2.58;;;;;;;12.05;80.80;100969.22;3563197;40;20053;-64
2023/01/01 07:21:03;;;;;;;6.32;2.58;;;;;;;12.60;80.64;101049.16;3563596;40;20056;-64
2023/01/01 07:23:32;;;;;;;11.32;2.78;;;;;;;12.54;79.95;101049.56;3565888;40;20099;-64
2023/01/01 07:25:59;;;;;;;6.72;1.98;;;;;;;12.55;78.71;101064.75;3558360;40;20465;-65
2023/01/01 07:28:25;;;;;;;6.97;2.15;;;;;;;12.43;78.69;101030.50;3566187;40;20119;-65
2023/01/01 07:30:52;;;;;;;8.05;2.13;;;;;;;11.92;78.60;100946.75;3562771;40;20081;-65
2023/01/01 07:33:21;;;;;;;5.32;1.92;;;;;;;12.56;78.71;101063.81;3566724;40;20056;-65
2023/01/01 07:35:47;;;;;;;8.38;2.35;;;;;;;12.55;79.14;101067.44;3564116;40;20557;-66
2023/01/01 07:38:14;;;;;;;6.93;2.03;;;;;;;12.23;79.51;101027.31;3562306;40;20049;-65
2023/01/01 07:40:41;;;;;;;7.47;2.17;;;;;;;12.48;80.01;101074.22;3565625;40;20065;-65
2023/01/01 07:43:07;;;;;;;7.32;2.60;;;;;;;12.47;80.73;101088.69;3565471;40;20107;-64
2023/01/01 07:45:33;;;;;;;5.13;1.70;;;;;;;12.46;81.10;101089.63;3562796;40;20400;-66
2023/01/01 07:48:00;;;;;;;10.38;2.58;;;;;;;11.69;80.96;100978.69;3562397;40;20120;-66
2023/01/01 07:50:31;;;;;;;5.20;2.10;;;;;;;12.37;81.21;101103.69;3563554;40;20064;-66
2023/01/01 07:52:57;;;;;;;8.50;1.92;;;;;;;12.34;82.04;101103.91;3562716;40;20049;-66
2023/01/01 07:55:23;;;;;;;7.13;2.20;;;;;;;11.11;82.77;100897.16;3561690;40;20060;-68
2023/01/01 07:57:49;;;;;;;6.20;2.58;;;;;;;12.29;83.23;101101.53;3565232;40;20088;-64
2023/01/01 08:00:18;;;;;;;17.52;8.18;;;;;;;12.28;84.10;101116.84;3565921;40;20403;-64
2023/01/01 08:02:45;;;;;;;11.57;3.58;;;;;;;12.23;84.51;101116.25;3566866;40;20049;-67
2023/01/01 08:05:11;;;;;;;7.72;2.58;;;;;;;12.20;84.45;101129.06;3564270;40;20078;-67
2023/01/01 08:07:37;;;;;;;10.57;2.80;;;;;;;12.26;84.91;101159.19;3564164;40;20060;-67
2023/01/01 08:10:05;;;;;;;8.85;2.67;;;;;;;12.24;84.96;101162.94;3562148;40;20060;-66
2023/01/01 08:12:32;;;;;;;8.40;2.67;;;;;;;12.24;85.03;101163.81;3565313;40;20115;-66
2023/01/01 08:14:57;;;;;;;7.80;3.00;;;;;;;12.24;85.21;101161.13;3569021;40;20092;-67
2023/01/01 08:17:23;;;;;;;8.65;2.50;;;;;;;12.24;85.67;101163.81;3565095;40;20462;-67
2023/01/01 08:19:49;;;;;;;5.80;2.30;;;;;;;11.49;85.42;101038.34;3562310;40;20072;-64
2023/01/01 08:22:15;;;;;;;9.43;2.80;;;;;;;12.23;85.73;101164.75;3564677;40;20061;-65
2023/01/01 08:24:41;;;;;;;7.90;2.38;;;;;;;12.24;86.13;101162.94;3566111;40;20079;-64
2023/01/01 08:27:09;;;;;;;5.53;2.30;;;;;;;12.23;85.92;101164.75;3563098;40;20319;-64
2023/01/01 08:29:35;;;;;;;6.20;2.05;;;;;;;12.16;85.56;101149.09;3562533;40;20061;-64
2023/01/01 08:32:00;;;;;;;9.07;2.40;;;;;;;12.25;85.90;101164.69;3562857;40;20063;-65
2023/01/01 08:34:26;;;;;;;7.45;2.75;;;;;;;12.23;86.05;101167.47;3564874;40;20392;-65
2023/01/01 08:36:52;;;;;;;7.55;2.63;;;;;;;12.25;85.52;101175.47;3563851;40;20052;-64
2023/01/01 08:39:17;;;;;;;9.70;2.30;;;;;;;12.23;86.14;101186.34;3568205;40;20051;-65
2023/01/01 08:41:43;;;;;;;6.45;2.13;;;;;;;12.26;86.05;101187.97;3566573;40;20067;-67
2023/01/01 08:44:08;;;;;;;6.85;2.33;;;;;;;12.22;85.39;101214.25;3567347;40;20045;-68
2023/01/01 08:46:34;;;;;;;7.88;2.83;;;;;;;12.20;86.44;101218.00;3563408;40;20060;-67
2023/01/01 08:48:59;;;;;;;7.55;2.42;;;;;;;12.21;86.62;101198.16;3565919;40;20049;-68
2023/01/01 08:51:25;;;;;;;6.63;2.30;;;;;;;11.49;86.38;101066.13;3564594;40;20053;-67
2023/01/01 08:53:51;;;;;;;8.88;2.83;;;;;;;12.16;86.94;101206.56;3564325;40;20300;-65
2023/01/01 08:56:16;;;;;;;9.85;2.60;;;;;;;12.17;87.28;101204.72;3565669;40;20427;-65
2023/01/01 08:58:42;;;;;;;15.38;3.03;;;;;;;11.53;87.36;101096.41;3565638;40;20068;-66
2023/01/01 09:01:10;;;;;;;8.15;2.15;;;;;;;12.20;87.42;101216.16;3567087;40;20049;-66
2023/01/01 09:03:36;;;;;;;10.23;3.70;;;;;;;12.22;87.05;101214.25;3564487;40;20041;-66
2023/01/01 09:06:03;;;;;;;8.57;2.75;;;;;;;12.23;87.01;101193.56;3563518;40;20108;-66
2023/01/01 09:08:28;;;;;;;9.45;2.60;;;;;;;12.24;87.20;101185.38;3565771;40;20053;-66
2023/01/01 09:11:02;;;;;;;8.93;3.00;;;;;;;11.41;86.94;101056.78;3567430;40;20512;-66
2023/01/01 09:13:28;;;;;;;8.85;2.60;;;;;;;12.30;87.58;101206.56;3563141;40;20140;-66
2023/01/01 09:15:55;;;;;;;7.93;2.63;;;;;;;12.30;87.80;101201.19;3568790;40;20359;-66
2023/01/01 09:18:21;;;;;;;6.95;2.80;;;;;;;12.38;87.33;101221.38;3566765;40;20348;-65
2023/01/01 09:20:47;;;;;;;8.05;3.38;;;;;;;12.39;87.64;101223.09;3564443;40;20101;-65
2023/01/01 09:23:13;;;;;;;11.07;3.00;;;;;;;12.45;87.32;101222.72;3566607;40;20427;-65
2023/01/01 09:25:39;;;;;;;9.10;2.90;;;;;;;12.47;87.04;101207.31;3566708;40;20045;-66
2023/01/01 09:28:10;;;;;;;11.02;3.70;;;;;;;12.48;86.88;101198.25;3556453;40;20107;-66
2023/01/01 09:30:37;;;;;;;10.07;3.63;;;;;;;12.49;87.34;101197.28;3566870;40;20056;-65
2023/01/01 09:33:03;;;;;;;10.93;3.70;;;;;;;11.84;87.09;101098.06;3571500;40;20069;-66
2023/01/01 09:35:30;;;;;;;7.90;3.47;;;;;;;12.53;86.68;101223.13;3569661;40;20097;-66
2023/01/01 09:37:56;;;;;;;10.98;3.70;;;;;;;12.51;86.91;101230.41;3557066;40;20062;-65
2023/01/01 09:40:46;;;;;;;10.40;3.25;;;;;;;12.46;87.00;101227.13;3571507;40;20095;-65
2023/01/01 09:43:47;;;;;;;9.30;3.00;;;;;;;12.45;87.08;101230.81;3569240;40;20060;-65
2023/01/01 09:46:13;;;;;;;6.03;2.90;;;;;;;12.46;86.60;101221.75;3562976;40;20403;-66
2023/01/01 09:48:56;;;;;;;12.07;3.90;;;;;;;11.70;86.43;101107.00;3563090;40;20063;-66
2023/01/01 09:51:29;;;;;;;10.98;3.38;;;;;;;12.43;86.02;101227.34;3563611;40;20041;-67
2023/01/01 09:54:27;;;;;;;9.68;3.45;;;;;;;12.46;86.50;101232.53;3562789;40;20389;-66
2023/01/01 09:56:59;;;;;;;9.40;3.45;;;;;;;12.45;85.82;101234.38;3563057;40;20053;-67
2023/01/01 09:59:26;;;;;;;9.20;3.50;;;;;;;12.23;85.75;101199.81;3563506;40;20146;-67
2023/01/01 10:02:18;;;;;;;18.55;9.35;;;;;;;12.47;85.44;101228.91;3569707;40;20083;-66
2023/01/01 10:05:30;;;;;;;17.77;7.38;;;;;;;12.46;85.35;101227.13;3566239;40;20061;-67
2023/01/01 10:08:14;;;;;;;9.23;3.67;;;;;;;12.45;85.80;101228.13;3566400;40;20052;-67
2023/01/01 10:10:56;;;;;;;7.30;3.25;;;;;;;12.47;85.92;101228.91;3566629;40;20065;-66
2023/01/01 10:13:33;;;;;;;8.57;3.43;;;;;;;12.43;85.84;101238.13;3564674;40;20065;-66
2023/01/01 10:16:27;;;;;;;10.23;3.60;;;;;;;12.32;85.58;101210.00;3562249;40;20385;-66
2023/01/01 10:19:00;;;;;;;10.48;3.50;;;;;;;12.41;85.22;101218.50;3545768;40;20458;-67
2023/01/01 10:21:43;;;;;;;12.73;3.80;;;;;;;12.47;85.23;101234.28;3565247;40;20462;-67
2023/01/01 10:24:39;;;;;;;10.07;3.70;;;;;;;12.49;85.03;101222.41;3565614;40;20063;-67
2023/01/01 10:27:06;;;;;;;7.35;3.63;;;;;;;12.53;84.53;101223.13;3565124;40;20055;-67
2023/01/01 10:29:48;;;;;;;10.75;3.50;;;;;;;12.58;84.16;101231.75;3567560;40;20270;-67
2023/01/01 10:32:37;;;;;;;11.27;3.30;;;;;;;11.99;83.89;101126.78;3564698;40;20053;-67
2023/01/01 10:35:18;;;;;;;8.52;3.40;;;;;;;12.65;83.46;101226.84;3566632;40;20256;-67
2023/01/01 10:37:44;;;;;;;11.65;3.67;;;;;;;12.77;82.28;101226.91;3565337;40;20296;-65
2023/01/01 10:40:20;;;;;;;10.13;3.40;;;;;;;12.88;81.94;101228.06;3566902;40;20045;-65
2023/01/01 10:42:52;;;;;;;7.22;3.17;;;;;;;12.96;81.32;101233.81;3565725;40;20303;-65
2023/01/01 10:45:30;;;;;;;12.95;3.45;;;;;;;13.06;80.36;101226.84;3565637;40;20427;-65
2023/01/01 10:48:25;;;;;;;10.52;3.67;;;;;;;13.19;79.71;101222.38;3565538;40;20049;-65
2023/01/01 10:51:23;;;;;;;9.52;3.42;;;;;;;13.29;78.82;101221.78;3566542;40;20057;-65
2023/01/01 10:53:51;;;;;;;12.45;3.10;;;;;;;13.41;77.59;101224.53;3565134;40;20049;-64
2023/01/01 10:56:22;;;;;;;10.23;2.85;;;;;;;13.54;77.06;101215.59;3568344;40;20053;-64
2023/01/01 10:58:54;;;;;;;15.93;5.90;;;;;;;13.59;76.14;101222.41;3566305;40;20121;-64
2023/01/01 11:01:32;;;;;;;8.45;2.80;;;;;;;13.32;75.16;101159.47;3564649;40;20060;-64
2023/01/01 11:04:19;;;;;;;10.85;3.13;;;;;;;13.87;74.63;101231.34;3564270;40;20057;-64
2023/01/01 11:06:47;;;;;;;11.70;2.70;;;;;;;13.91;74.56;101222.91;3565579;40;20048;-64
2023/01/01 11:09:30;;;;;;;10.50;3.22;;;;;;;13.97;73.58;101229.72;3566338;40;20364;-64
2023/01/01 11:12:05;;;;;;;12.48;2.88;;;;;;;14.01;73.33;101242.03;3565945;40;20053;-64
2023/01/01 11:14:49;;;;;;;11.77;3.13;;;;;;;14.02;72.63;101243.78;3566547;40;20064;-64
2023/01/01 11:17:29;;;;;;;10.52;2.47;;;;;;;14.04;72.43;101247.25;3562495;40;20068;-64
2023/01/01 11:19:58;;;;;;;5.95;2.50;;;;;;;13.37;72.32;101127.63;3563480;40;20056;-63
2023/01/01 11:22:34;;;;;;;7.85;2.80;;;;;;;14.14;71.96;101261.88;3562385;40;20537;-64
2023/01/01 11:25:03;;;;;;;8.50;3.00;;;;;;;14.16;72.27;101270.72;3566474;40;20080;-64
2023/01/01 11:27:28;;;;;;;9.45;2.97;;;;;;;14.21;71.44;101270.41;3561911;40;20055;-64
2023/01/01 11:30:23;;;;;;;11.63;3.00;;;;;;;14.17;70.42;101247.25;3566646;40;20057;-63
2023/01/01 11:32:58;;;;;;;8.20;2.35;;;;;;;13.72;71.37;101170.25;3562496;40;20351;-64
2023/01/01 11:35:29;;;;;;;8.38;2.70;;;;;;;14.33;70.51;101256.00;3562849;40;20050;-64
2023/01/01 11:37:57;;;;;;;10.52;2.63;;;;;;;13.76;69.79;101132.09;3557749;40;20053;-64
2023/01/01 11:40:31;;;;;;;8.50;2.50;;;;;;;14.54;69.22;101256.34;3565941;40;20126;-64
2023/01/01 11:43:02;;;;;;;5.13;2.38;;;;;;;14.57;68.06;101258.84;3562152;40;20480;-64
2023/01/01 11:45:35;;;;;;;8.63;2.40;;;;;;;14.61;67.33;101241.41;3566475;40;20175;-65
2023/01/01 11:48:35;;;;;;;10.70;2.58;;;;;;;14.66;68.93;101232.13;3554282;40;20037;-65
2023/01/01 11:51:07;;;;;;;6.78;2.40;;;;;;;14.65;68.48;101228.50;3552359;40;20053;-65
2023/01/01 11:53:40;;;;;;;9.15;2.47;;;;;;;14.68;66.96;101240.97;3565811;40;20053;-65